sensor_id;sensor_type;location;lat;lon;timestamp;P1;durP1;ratioP1;P2;durP2;ratioP2
27728;SDS011;15126;42.186;24.340;2023-03-05T00:00:08;47.13;;;37.37;;
27728;SDS011;15126;42.186;24.340;2023-03-05T00:02:36;92.27;;;56.33;;
27728;SDS011;15126;42.186;24.340;2023-03-05T00:05:03;73.07;;;50.17;;
27728;SDS011;15126;42.186;24.340;2023-03-05T00:07:31;55.00;;;42.27;;
27728;SDS011;15126;42.186;24.340;2023-03-05T00:09:58;47.07;;;38.40;;
27728;SDS011;15126;42.186;24.340;2023-03-05T00:12:25;50.03;;;40.07;;
27728;SDS011;15126;42.186;24.340;2023-03-05T00:14:53;47.13;;;38.77;;
27728;SDS011;15126;42.186;24.340;2023-03-05T00:17:20;44.80;;;35.90;;
27728;SDS011;15126;42.186;24.340;2023-03-05T00:19:47;44.90;;;38.07;;
27728;SDS011;15126;42.186;24.340;2023-03-05T00:22:13;44.70;;;36.70;;
27728;SDS011;15126;42.186;24.340;2023-03-05T00:24:40;41.23;;;34.80;;
27728;SDS011;15126;42.186;24.340;2023-03-05T00:27:07;41.43;;;35.70;;
27728;SDS011;15126;42.186;24.340;2023-03-05T00:29:34;45.90;;;37.53;;
27728;SDS011;15126;42.186;24.340;2023-03-05T00:32:02;46.63;;;38.83;;
27728;SDS011;15126;42.186;24.340;2023-03-05T00:34:29;44.73;;;36.10;;
27728;SDS011;15126;42.186;24.340;2023-03-05T00:36:56;49.80;;;38.50;;
27728;SDS011;15126;42.186;24.340;2023-03-05T00:39:22;47.23;;;39.67;;
27728;SDS011;15126;42.186;24.340;2023-03-05T00:41:49;44.77;;;36.97;;
27728;SDS011;15126;42.186;24.340;2023-03-05T00:44:16;44.03;;;34.93;;
27728;SDS011;15126;42.186;24.340;2023-03-05T00:46:43;41.90;;;35.37;;
27728;SDS011;15126;42.186;24.340;2023-03-05T00:49:11;39.20;;;34.40;;
27728;SDS011;15126;42.186;24.340;2023-03-05T00:51:38;42.77;;;35.53;;
27728;SDS011;15126;42.186;24.340;2023-03-05T00:54:05;41.40;;;33.27;;
27728;SDS011;15126;42.186;24.340;2023-03-05T00:56:32;41.87;;;35.03;;
27728;SDS011;15126;42.186;24.340;2023-03-05T00:58:59;38.37;;;33.00;;
27728;SDS011;15126;42.186;24.340;2023-03-05T01:01:26;52.33;;;35.73;;
27728;SDS011;15126;42.186;24.340;2023-03-05T01:03:53;39.90;;;33.23;;
27728;SDS011;15126;42.186;24.340;2023-03-05T01:06:23;40.60;;;31.40;;
27728;SDS011;15126;42.186;24.340;2023-03-05T01:08:49;42.03;;;30.47;;
27728;SDS011;15126;42.186;24.340;2023-03-05T01:11:16;36.10;;;28.30;;
27728;SDS011;15126;42.186;24.340;2023-03-05T01:13:43;37.70;;;28.90;;
27728;SDS011;15126;42.186;24.340;2023-03-05T01:16:10;35.43;;;29.23;;
27728;SDS011;15126;42.186;24.340;2023-03-05T01:18:37;37.57;;;29.43;;
27728;SDS011;15126;42.186;24.340;2023-03-05T01:21:05;36.93;;;30.00;;
27728;SDS011;15126;42.186;24.340;2023-03-05T01:23:33;37.97;;;27.33;;
27728;SDS011;15126;42.186;24.340;2023-03-05T01:26:01;34.70;;;30.17;;
27728;SDS011;15126;42.186;24.340;2023-03-05T01:28:28;36.70;;;29.70;;
27728;SDS011;15126;42.186;24.340;2023-03-05T01:30:56;38.87;;;29.10;;
27728;SDS011;15126;42.186;24.340;2023-03-05T01:33:23;36.63;;;28.63;;
27728;SDS011;15126;42.186;24.340;2023-03-05T01:35:50;33.33;;;28.43;;
27728;SDS011;15126;42.186;24.340;2023-03-05T01:38:17;36.90;;;29.70;;
27728;SDS011;15126;42.186;24.340;2023-03-05T01:40:46;33.20;;;27.77;;
27728;SDS011;15126;42.186;24.340;2023-03-05T01:43:18;37.23;;;28.80;;
27728;SDS011;15126;42.186;24.340;2023-03-05T01:48:49;39.30;;;28.30;;
27728;SDS011;15126;42.186;24.340;2023-03-05T01:51:19;37.63;;;28.80;;
27728;SDS011;15126;42.186;24.340;2023-03-05T01:53:49;34.70;;;25.77;;
27728;SDS011;15126;42.186;24.340;2023-03-05T01:56:17;34.53;;;27.10;;
27728;SDS011;15126;42.186;24.340;2023-03-05T01:58:45;34.47;;;27.83;;
27728;SDS011;15126;42.186;24.340;2023-03-05T02:01:12;33.57;;;27.27;;
27728;SDS011;15126;42.186;24.340;2023-03-05T02:03:39;35.30;;;26.83;;
27728;SDS011;15126;42.186;24.340;2023-03-05T02:06:06;35.50;;;26.47;;
27728;SDS011;15126;42.186;24.340;2023-03-05T02:08:33;33.03;;;27.77;;
27728;SDS011;15126;42.186;24.340;2023-03-05T02:11:00;36.67;;;28.13;;
27728;SDS011;15126;42.186;24.340;2023-03-05T02:13:30;34.80;;;28.53;;
27728;SDS011;15126;42.186;24.340;2023-03-05T02:16:00;36.93;;;27.70;;
27728;SDS011;15126;42.186;24.340;2023-03-05T02:18:27;32.80;;;27.83;;
27728;SDS011;15126;42.186;24.340;2023-03-05T02:20:59;33.03;;;26.60;;
27728;SDS011;15126;42.186;24.340;2023-03-05T02:23:28;30.47;;;27.17;;
27728;SDS011;15126;42.186;24.340;2023-03-05T02:26:00;29.23;;;24.67;;
27728;SDS011;15126;42.186;24.340;2023-03-05T02:28:29;32.07;;;26.97;;
27728;SDS011;15126;42.186;24.340;2023-03-05T02:30:59;29.67;;;25.77;;
27728;SDS011;15126;42.186;24.340;2023-03-05T02:33:26;30.27;;;23.90;;
27728;SDS011;15126;42.186;24.340;2023-03-05T02:35:53;30.53;;;24.93;;
27728;SDS011;15126;42.186;24.340;2023-03-05T02:38:21;29.80;;;23.37;;
27728;SDS011;15126;42.186;24.340;2023-03-05T02:40:48;29.37;;;23.07;;
27728;SDS011;15126;42.186;24.340;2023-03-05T02:43:15;28.73;;;23.43;;
27728;SDS011;15126;42.186;24.340;2023-03-05T02:45:42;32.70;;;24.00;;
27728;SDS011;15126;42.186;24.340;2023-03-05T02:48:09;27.47;;;23.93;;
27728;SDS011;15126;42.186;24.340;2023-03-05T02:50:35;33.10;;;24.30;;
27728;SDS011;15126;42.186;24.340;2023-03-05T02:53:03;32.57;;;24.90;;
27728;SDS011;15126;42.186;24.340;2023-03-05T02:55:32;30.77;;;26.70;;
27728;SDS011;15126;42.186;24.340;2023-03-05T02:57:59;30.97;;;26.03;;
27728;SDS011;15126;42.186;24.340;2023-03-05T03:00:26;32.03;;;26.10;;
27728;SDS011;15126;42.186;24.340;2023-03-05T03:02:53;35.40;;;28.00;;
27728;SDS011;15126;42.186;24.340;2023-03-05T03:05:20;31.53;;;26.77;;
27728;SDS011;15126;42.186;24.340;2023-03-05T03:07:47;33.60;;;26.53;;
27728;SDS011;15126;42.186;24.340;2023-03-05T03:10:13;30.83;;;26.93;;
27728;SDS011;15126;42.186;24.340;2023-03-05T03:12:43;33.47;;;28.87;;
27728;SDS011;15126;42.186;24.340;2023-03-05T03:15:11;37.03;;;29.27;;
27728;SDS011;15126;42.186;24.340;2023-03-05T03:17:39;34.47;;;28.37;;
27728;SDS011;15126;42.186;24.340;2023-03-05T03:20:07;37.63;;;26.97;;
27728;SDS011;15126;42.186;24.340;2023-03-05T03:22:35;31.60;;;26.87;;
27728;SDS011;15126;42.186;24.340;2023-03-05T03:25:03;34.63;;;28.03;;
27728;SDS011;15126;42.186;24.340;2023-03-05T03:27:31;33.17;;;27.40;;
27728;SDS011;15126;42.186;24.340;2023-03-05T03:29:59;36.20;;;26.23;;
27728;SDS011;15126;42.186;24.340;2023-03-05T03:32:28;43.00;;;29.53;;
27728;SDS011;15126;42.186;24.340;2023-03-05T03:34:56;36.90;;;28.13;;
27728;SDS011;15126;42.186;24.340;2023-03-05T03:37:23;34.10;;;26.37;;
27728;SDS011;15126;42.186;24.340;2023-03-05T03:39:50;37.20;;;29.80;;
27728;SDS011;15126;42.186;24.340;2023-03-05T03:42:18;34.50;;;26.07;;
27728;SDS011;15126;42.186;24.340;2023-03-05T03:44:45;33.83;;;27.50;;
27728;SDS011;15126;42.186;24.340;2023-03-05T03:47:14;34.27;;;26.97;;
27728;SDS011;15126;42.186;24.340;2023-03-05T03:49:41;34.43;;;27.13;;
27728;SDS011;15126;42.186;24.340;2023-03-05T03:52:08;36.67;;;28.20;;
27728;SDS011;15126;42.186;24.340;2023-03-05T03:54:34;36.70;;;29.83;;
27728;SDS011;15126;42.186;24.340;2023-03-05T03:57:01;36.80;;;28.67;;
27728;SDS011;15126;42.186;24.340;2023-03-05T03:59:28;32.33;;;27.47;;
27728;SDS011;15126;42.186;24.340;2023-03-05T04:01:55;35.93;;;27.03;;
27728;SDS011;15126;42.186;24.340;2023-03-05T04:04:23;34.37;;;28.07;;
27728;SDS011;15126;42.186;24.340;2023-03-05T04:06:53;33.63;;;27.40;;
27728;SDS011;15126;42.186;24.340;2023-03-05T04:09:19;31.70;;;26.33;;
27728;SDS011;15126;42.186;24.340;2023-03-05T04:11:46;32.87;;;25.50;;
27728;SDS011;15126;42.186;24.340;2023-03-05T04:14:13;38.50;;;29.37;;
27728;SDS011;15126;42.186;24.340;2023-03-05T04:16:40;38.60;;;30.63;;
27728;SDS011;15126;42.186;24.340;2023-03-05T04:19:07;38.90;;;30.77;;
27728;SDS011;15126;42.186;24.340;2023-03-05T04:21:35;38.53;;;31.83;;
27728;SDS011;15126;42.186;24.340;2023-03-05T04:24:03;43.13;;;31.87;;
27728;SDS011;15126;42.186;24.340;2023-03-05T04:26:32;36.97;;;32.20;;
27728;SDS011;15126;42.186;24.340;2023-03-05T04:28:59;43.47;;;33.67;;
27728;SDS011;15126;42.186;24.340;2023-03-05T04:31:26;41.50;;;32.23;;
27728;SDS011;15126;42.186;24.340;2023-03-05T04:33:52;44.40;;;32.87;;
27728;SDS011;15126;42.186;24.340;2023-03-05T04:36:19;43.87;;;33.70;;
27728;SDS011;15126;42.186;24.340;2023-03-05T04:38:47;40.67;;;32.57;;
27728;SDS011;15126;42.186;24.340;2023-03-05T04:41:14;46.10;;;33.03;;
27728;SDS011;15126;42.186;24.340;2023-03-05T04:43:41;43.10;;;33.93;;
27728;SDS011;15126;42.186;24.340;2023-03-05T04:46:08;52.13;;;34.20;;
27728;SDS011;15126;42.186;24.340;2023-03-05T04:48:34;43.73;;;31.90;;
27728;SDS011;15126;42.186;24.340;2023-03-05T04:51:01;37.73;;;30.77;;
27728;SDS011;15126;42.186;24.340;2023-03-05T04:53:29;45.60;;;32.53;;
27728;SDS011;15126;42.186;24.340;2023-03-05T04:55:57;42.70;;;33.13;;
27728;SDS011;15126;42.186;24.340;2023-03-05T04:58:25;36.67;;;30.87;;
27728;SDS011;15126;42.186;24.340;2023-03-05T05:00:53;43.40;;;31.53;;
27728;SDS011;15126;42.186;24.340;2023-03-05T05:03:20;38.47;;;29.67;;
27728;SDS011;15126;42.186;24.340;2023-03-05T05:05:52;42.00;;;32.03;;
27728;SDS011;15126;42.186;24.340;2023-03-05T05:08:20;34.60;;;28.90;;
27728;SDS011;15126;42.186;24.340;2023-03-05T05:10:54;35.50;;;28.53;;
27728;SDS011;15126;42.186;24.340;2023-03-05T05:13:22;38.00;;;30.10;;
27728;SDS011;15126;42.186;24.340;2023-03-05T05:15:50;37.20;;;29.97;;
27728;SDS011;15126;42.186;24.340;2023-03-05T05:18:16;34.77;;;27.90;;
27728;SDS011;15126;42.186;24.340;2023-03-05T05:20:44;37.53;;;27.87;;
27728;SDS011;15126;42.186;24.340;2023-03-05T05:23:10;39.63;;;29.70;;
27728;SDS011;15126;42.186;24.340;2023-03-05T05:25:37;37.50;;;28.80;;
27728;SDS011;15126;42.186;24.340;2023-03-05T05:28:04;34.00;;;26.47;;
27728;SDS011;15126;42.186;24.340;2023-03-05T05:30:32;29.40;;;26.10;;
27728;SDS011;15126;42.186;24.340;2023-03-05T05:32:59;29.23;;;25.13;;
27728;SDS011;15126;42.186;24.340;2023-03-05T05:35:26;30.63;;;25.23;;
27728;SDS011;15126;42.186;24.340;2023-03-05T05:37:53;31.00;;;23.93;;
27728;SDS011;15126;42.186;24.340;2023-03-05T05:40:20;29.00;;;23.77;;
27728;SDS011;15126;42.186;24.340;2023-03-05T05:42:46;29.17;;;25.70;;
27728;SDS011;15126;42.186;24.340;2023-03-05T05:45:13;34.30;;;26.17;;
27728;SDS011;15126;42.186;24.340;2023-03-05T05:47:42;30.53;;;25.00;;
27728;SDS011;15126;42.186;24.340;2023-03-05T05:50:09;30.57;;;25.50;;
27728;SDS011;15126;42.186;24.340;2023-03-05T05:52:37;28.33;;;23.10;;
27728;SDS011;15126;42.186;24.340;2023-03-05T05:55:04;29.73;;;25.60;;
27728;SDS011;15126;42.186;24.340;2023-03-05T05:57:32;37.57;;;25.33;;
27728;SDS011;15126;42.186;24.340;2023-03-05T05:59:59;31.43;;;25.50;;
27728;SDS011;15126;42.186;24.340;2023-03-05T06:02:26;36.10;;;28.53;;
27728;SDS011;15126;42.186;24.340;2023-03-05T06:04:55;37.50;;;28.07;;
27728;SDS011;15126;42.186;24.340;2023-03-05T06:07:23;30.73;;;26.03;;
27728;SDS011;15126;42.186;24.340;2023-03-05T06:09:50;31.00;;;25.20;;
27728;SDS011;15126;42.186;24.340;2023-03-05T06:12:17;34.97;;;27.13;;
27728;SDS011;15126;42.186;24.340;2023-03-05T06:14:44;28.23;;;25.23;;
27728;SDS011;15126;42.186;24.340;2023-03-05T06:17:13;30.53;;;24.10;;
27728;SDS011;15126;42.186;24.340;2023-03-05T06:19:40;33.30;;;25.63;;
27728;SDS011;15126;42.186;24.340;2023-03-05T06:22:08;28.47;;;25.33;;
27728;SDS011;15126;42.186;24.340;2023-03-05T06:24:36;31.67;;;24.13;;
27728;SDS011;15126;42.186;24.340;2023-03-05T06:27:03;31.73;;;24.00;;
27728;SDS011;15126;42.186;24.340;2023-03-05T06:29:31;35.53;;;27.30;;
27728;SDS011;15126;42.186;24.340;2023-03-05T06:31:58;34.07;;;27.33;;
27728;SDS011;15126;42.186;24.340;2023-03-05T06:34:25;33.53;;;29.93;;
27728;SDS011;15126;42.186;24.340;2023-03-05T06:36:52;43.73;;;33.33;;
27728;SDS011;15126;42.186;24.340;2023-03-05T06:39:20;33.40;;;29.53;;
27728;SDS011;15126;42.186;24.340;2023-03-05T06:41:49;36.43;;;30.17;;
27728;SDS011;15126;42.186;24.340;2023-03-05T06:44:16;28.37;;;25.27;;
27728;SDS011;15126;42.186;24.340;2023-03-05T06:46:43;31.53;;;25.80;;
27728;SDS011;15126;42.186;24.340;2023-03-05T06:49:10;30.40;;;23.50;;
27728;SDS011;15126;42.186;24.340;2023-03-05T06:51:37;30.50;;;25.13;;
27728;SDS011;15126;42.186;24.340;2023-03-05T06:54:05;31.00;;;25.93;;
27728;SDS011;15126;42.186;24.340;2023-03-05T06:56:35;32.57;;;25.63;;
27728;SDS011;15126;42.186;24.340;2023-03-05T06:59:04;28.23;;;25.07;;
27728;SDS011;15126;42.186;24.340;2023-03-05T07:01:31;33.33;;;28.13;;
27728;SDS011;15126;42.186;24.340;2023-03-05T07:03:57;33.60;;;27.67;;
27728;SDS011;15126;42.186;24.340;2023-03-05T07:06:27;34.63;;;27.27;;
27728;SDS011;15126;42.186;24.340;2023-03-05T07:08:57;32.77;;;28.17;;
27728;SDS011;15126;42.186;24.340;2023-03-05T07:11:25;34.17;;;29.47;;
27728;SDS011;15126;42.186;24.340;2023-03-05T07:13:54;35.40;;;30.33;;
27728;SDS011;15126;42.186;24.340;2023-03-05T07:16:21;32.80;;;27.50;;
27728;SDS011;15126;42.186;24.340;2023-03-05T07:18:49;37.57;;;27.17;;
27728;SDS011;15126;42.186;24.340;2023-03-05T07:21:17;45.43;;;36.30;;
27728;SDS011;15126;42.186;24.340;2023-03-05T07:23:45;46.67;;;37.10;;
27728;SDS011;15126;42.186;24.340;2023-03-05T07:26:12;40.10;;;29.77;;
27728;SDS011;15126;42.186;24.340;2023-03-05T07:28:40;36.03;;;29.63;;
27728;SDS011;15126;42.186;24.340;2023-03-05T07:31:11;35.43;;;29.73;;
27728;SDS011;15126;42.186;24.340;2023-03-05T07:33:38;34.77;;;31.07;;
27728;SDS011;15126;42.186;24.340;2023-03-05T07:36:06;47.10;;;31.83;;
27728;SDS011;15126;42.186;24.340;2023-03-05T07:38:34;44.50;;;35.10;;
27728;SDS011;15126;42.186;24.340;2023-03-05T07:41:01;40.20;;;33.53;;
27728;SDS011;15126;42.186;24.340;2023-03-05T07:43:28;40.27;;;35.97;;
27728;SDS011;15126;42.186;24.340;2023-03-05T07:45:55;36.83;;;32.77;;
27728;SDS011;15126;42.186;24.340;2023-03-05T07:48:24;97.13;;;75.70;;
27728;SDS011;15126;42.186;24.340;2023-03-05T07:50:58;73.37;;;55.17;;
27728;SDS011;15126;42.186;24.340;2023-03-05T07:53:29;46.93;;;38.80;;
27728;SDS011;15126;42.186;24.340;2023-03-05T07:55:56;38.17;;;31.90;;
27728;SDS011;15126;42.186;24.340;2023-03-05T07:58:23;43.03;;;32.87;;
27728;SDS011;15126;42.186;24.340;2023-03-05T08:00:50;55.90;;;39.87;;
27728;SDS011;15126;42.186;24.340;2023-03-05T08:03:17;35.20;;;27.23;;
27728;SDS011;15126;42.186;24.340;2023-03-05T08:05:45;63.40;;;41.57;;
27728;SDS011;15126;42.186;24.340;2023-03-05T08:08:12;36.33;;;29.03;;
27728;SDS011;15126;42.186;24.340;2023-03-05T08:10:40;34.00;;;28.03;;
27728;SDS011;15126;42.186;24.340;2023-03-05T08:13:07;34.33;;;27.10;;
27728;SDS011;15126;42.186;24.340;2023-03-05T08:15:35;34.40;;;28.53;;
27728;SDS011;15126;42.186;24.340;2023-03-05T08:18:02;32.43;;;28.93;;
27728;SDS011;15126;42.186;24.340;2023-03-05T08:20:29;41.57;;;33.77;;
27728;SDS011;15126;42.186;24.340;2023-03-05T08:23:01;36.57;;;31.90;;
27728;SDS011;15126;42.186;24.340;2023-03-05T08:25:28;30.80;;;26.10;;
27728;SDS011;15126;42.186;24.340;2023-03-05T08:27:55;32.07;;;28.53;;
27728;SDS011;15126;42.186;24.340;2023-03-05T08:30:22;35.60;;;27.20;;
27728;SDS011;15126;42.186;24.340;2023-03-05T08:32:51;33.77;;;25.77;;
27728;SDS011;15126;42.186;24.340;2023-03-05T08:35:19;35.00;;;26.27;;
27728;SDS011;15126;42.186;24.340;2023-03-05T08:37:46;39.97;;;32.50;;
27728;SDS011;15126;42.186;24.340;2023-03-05T08:40:15;39.77;;;33.77;;
27728;SDS011;15126;42.186;24.340;2023-03-05T08:42:43;34.33;;;29.13;;
27728;SDS011;15126;42.186;24.340;2023-03-05T08:45:10;34.03;;;26.17;;
27728;SDS011;15126;42.186;24.340;2023-03-05T08:47:37;34.83;;;30.03;;
27728;SDS011;15126;42.186;24.340;2023-03-05T08:50:05;33.73;;;27.53;;
27728;SDS011;15126;42.186;24.340;2023-03-05T08:52:33;30.57;;;25.60;;
27728;SDS011;15126;42.186;24.340;2023-03-05T08:55:00;33.67;;;26.40;;
27728;SDS011;15126;42.186;24.340;2023-03-05T08:57:28;28.10;;;23.80;;
27728;SDS011;15126;42.186;24.340;2023-03-05T08:59:55;33.27;;;24.83;;
27728;SDS011;15126;42.186;24.340;2023-03-05T09:02:22;35.67;;;29.10;;
27728;SDS011;15126;42.186;24.340;2023-03-05T09:04:48;34.03;;;27.73;;
27728;SDS011;15126;42.186;24.340;2023-03-05T09:07:15;28.83;;;21.50;;
27728;SDS011;15126;42.186;24.340;2023-03-05T09:09:42;27.97;;;22.50;;
27728;SDS011;15126;42.186;24.340;2023-03-05T09:12:09;29.63;;;22.53;;
27728;SDS011;15126;42.186;24.340;2023-03-05T09:14:38;32.70;;;26.80;;
27728;SDS011;15126;42.186;24.340;2023-03-05T09:17:06;28.70;;;22.13;;
27728;SDS011;15126;42.186;24.340;2023-03-05T09:19:33;27.77;;;22.33;;
27728;SDS011;15126;42.186;24.340;2023-03-05T09:22:00;28.03;;;22.53;;
27728;SDS011;15126;42.186;24.340;2023-03-05T09:24:27;26.70;;;20.33;;
27728;SDS011;15126;42.186;24.340;2023-03-05T09:26:56;26.67;;;21.60;;
27728;SDS011;15126;42.186;24.340;2023-03-05T09:29:23;28.37;;;21.80;;
27728;SDS011;15126;42.186;24.340;2023-03-05T09:31:52;32.10;;;24.77;;
27728;SDS011;15126;42.186;24.340;2023-03-05T09:34:19;30.07;;;24.10;;
27728;SDS011;15126;42.186;24.340;2023-03-05T09:36:46;31.93;;;25.07;;
27728;SDS011;15126;42.186;24.340;2023-03-05T09:39:13;26.63;;;23.77;;
27728;SDS011;15126;42.186;24.340;2023-03-05T09:41:54;28.37;;;23.60;;
27728;SDS011;15126;42.186;24.340;2023-03-05T09:44:36;26.10;;;22.60;;
27728;SDS011;15126;42.186;24.340;2023-03-05T09:47:15;30.50;;;24.27;;
27728;SDS011;15126;42.186;24.340;2023-03-05T09:49:54;32.80;;;27.10;;
27728;SDS011;15126;42.186;24.340;2023-03-05T09:52:30;28.23;;;22.37;;
27728;SDS011;15126;42.186;24.340;2023-03-05T09:55:05;26.73;;;21.70;;
27728;SDS011;15126;42.186;24.340;2023-03-05T09:57:40;25.53;;;21.67;;
27728;SDS011;15126;42.186;24.340;2023-03-05T10:00:14;28.67;;;21.47;;
27728;SDS011;15126;42.186;24.340;2023-03-05T10:02:55;27.83;;;22.63;;
27728;SDS011;15126;42.186;24.340;2023-03-05T10:05:25;23.53;;;20.47;;
27728;SDS011;15126;42.186;24.340;2023-03-05T10:07:58;27.73;;;23.67;;
27728;SDS011;15126;42.186;24.340;2023-03-05T10:10:31;28.10;;;23.33;;
27728;SDS011;15126;42.186;24.340;2023-03-05T10:13:06;26.17;;;23.10;;
27728;SDS011;15126;42.186;24.340;2023-03-05T10:15:43;28.57;;;25.37;;
27728;SDS011;15126;42.186;24.340;2023-03-05T10:18:20;29.87;;;24.73;;
27728;SDS011;15126;42.186;24.340;2023-03-05T10:20:55;27.33;;;22.40;;
27728;SDS011;15126;42.186;24.340;2023-03-05T10:23:26;36.97;;;28.70;;
27728;SDS011;15126;42.186;24.340;2023-03-05T10:26:04;25.83;;;21.47;;
27728;SDS011;15126;42.186;24.340;2023-03-05T10:28:42;25.90;;;22.53;;
27728;SDS011;15126;42.186;24.340;2023-03-05T10:31:19;26.17;;;20.67;;
27728;SDS011;15126;42.186;24.340;2023-03-05T10:34:03;37.67;;;25.40;;
27728;SDS011;15126;42.186;24.340;2023-03-05T10:36:47;25.73;;;22.43;;
27728;SDS011;15126;42.186;24.340;2023-03-05T10:39:29;29.70;;;26.20;;
27728;SDS011;15126;42.186;24.340;2023-03-05T10:42:06;25.07;;;22.30;;
27728;SDS011;15126;42.186;24.340;2023-03-05T10:44:43;27.13;;;22.00;;
27728;SDS011;15126;42.186;24.340;2023-03-05T10:47:14;25.57;;;21.83;;
27728;SDS011;15126;42.186;24.340;2023-03-05T10:49:49;22.67;;;19.97;;
27728;SDS011;15126;42.186;24.340;2023-03-05T10:52:17;25.87;;;22.93;;
27728;SDS011;15126;42.186;24.340;2023-03-05T10:54:46;37.30;;;33.30;;
27728;SDS011;15126;42.186;24.340;2023-03-05T10:57:15;23.73;;;20.17;;
27728;SDS011;15126;42.186;24.340;2023-03-05T10:59:46;18.10;;;16.03;;
27728;SDS011;15126;42.186;24.340;2023-03-05T11:02:16;25.33;;;17.07;;
27728;SDS011;15126;42.186;24.340;2023-03-05T11:04:44;17.27;;;14.90;;
27728;SDS011;15126;42.186;24.340;2023-03-05T11:10:09;17.40;;;15.10;;
27728;SDS011;15126;42.186;24.340;2023-03-05T11:12:40;19.67;;;14.90;;
27728;SDS011;15126;42.186;24.340;2023-03-05T11:15:18;16.13;;;14.10;;
27728;SDS011;15126;42.186;24.340;2023-03-05T11:18:03;16.70;;;13.10;;
27728;SDS011;15126;42.186;24.340;2023-03-05T11:20:42;21.27;;;19.13;;
27728;SDS011;15126;42.186;24.340;2023-03-05T11:23:11;12.80;;;11.57;;
27728;SDS011;15126;42.186;24.340;2023-03-05T11:25:56;15.43;;;12.60;;
27728;SDS011;15126;42.186;24.340;2023-03-05T11:28:26;17.27;;;13.63;;
27728;SDS011;15126;42.186;24.340;2023-03-05T11:30:56;17.50;;;13.03;;
27728;SDS011;15126;42.186;24.340;2023-03-05T11:33:25;16.73;;;13.40;;
27728;SDS011;15126;42.186;24.340;2023-03-05T11:36:08;14.73;;;12.53;;
27728;SDS011;15126;42.186;24.340;2023-03-05T11:38:49;17.27;;;15.57;;
27728;SDS011;15126;42.186;24.340;2023-03-05T11:41:19;18.77;;;16.43;;
27728;SDS011;15126;42.186;24.340;2023-03-05T11:43:52;13.77;;;12.37;;
27728;SDS011;15126;42.186;24.340;2023-03-05T11:46:21;18.03;;;12.83;;
27728;SDS011;15126;42.186;24.340;2023-03-05T11:48:48;16.13;;;12.37;;
27728;SDS011;15126;42.186;24.340;2023-03-05T11:51:17;12.50;;;10.23;;
27728;SDS011;15126;42.186;24.340;2023-03-05T11:53:48;12.63;;;11.17;;
27728;SDS011;15126;42.186;24.340;2023-03-05T11:56:23;13.90;;;12.50;;
27728;SDS011;15126;42.186;24.340;2023-03-05T11:58:51;15.37;;;13.77;;
27728;SDS011;15126;42.186;24.340;2023-03-05T12:01:24;13.20;;;11.90;;
27728;SDS011;15126;42.186;24.340;2023-03-05T12:03:53;17.63;;;14.30;;
27728;SDS011;15126;42.186;24.340;2023-03-05T12:06:26;22.70;;;16.10;;
27728;SDS011;15126;42.186;24.340;2023-03-05T12:08:57;19.30;;;16.67;;
27728;SDS011;15126;42.186;24.340;2023-03-05T12:11:28;14.83;;;13.27;;
27728;SDS011;15126;42.186;24.340;2023-03-05T12:13:58;16.80;;;14.37;;
27728;SDS011;15126;42.186;24.340;2023-03-05T12:16:32;18.60;;;16.70;;
27728;SDS011;15126;42.186;24.340;2023-03-05T12:19:10;21.63;;;17.63;;
27728;SDS011;15126;42.186;24.340;2023-03-05T12:21:57;17.43;;;15.53;;
27728;SDS011;15126;42.186;24.340;2023-03-05T12:24:35;18.13;;;16.33;;
27728;SDS011;15126;42.186;24.340;2023-03-05T12:27:10;21.27;;;17.07;;
27728;SDS011;15126;42.186;24.340;2023-03-05T12:29:43;19.50;;;15.67;;
27728;SDS011;15126;42.186;24.340;2023-03-05T12:35:23;20.33;;;17.67;;
27728;SDS011;15126;42.186;24.340;2023-03-05T12:38:00;19.37;;;17.27;;
27728;SDS011;15126;42.186;24.340;2023-03-05T12:40:53;17.80;;;15.93;;
27728;SDS011;15126;42.186;24.340;2023-03-05T12:44:08;20.43;;;16.83;;
27728;SDS011;15126;42.186;24.340;2023-03-05T12:46:45;21.07;;;17.33;;
27728;SDS011;15126;42.186;24.340;2023-03-05T12:49:43;19.53;;;16.93;;
27728;SDS011;15126;42.186;24.340;2023-03-05T12:52:13;18.80;;;15.83;;
27728;SDS011;15126;42.186;24.340;2023-03-05T12:55:03;17.60;;;15.80;;
27728;SDS011;15126;42.186;24.340;2023-03-05T12:57:51;18.57;;;15.73;;
27728;SDS011;15126;42.186;24.340;2023-03-05T13:00:24;18.43;;;16.47;;
27728;SDS011;15126;42.186;24.340;2023-03-05T13:02:53;25.97;;;22.70;;
27728;SDS011;15126;42.186;24.340;2023-03-05T13:05:25;22.63;;;19.87;;
27728;SDS011;15126;42.186;24.340;2023-03-05T13:08:08;24.70;;;20.60;;
27728;SDS011;15126;42.186;24.340;2023-03-05T13:10:35;20.53;;;18.13;;
27728;SDS011;15126;42.186;24.340;2023-03-05T13:13:04;22.20;;;18.40;;
27728;SDS011;15126;42.186;24.340;2023-03-05T13:15:31;21.13;;;18.87;;
27728;SDS011;15126;42.186;24.340;2023-03-05T13:17:59;22.07;;;17.40;;
27728;SDS011;15126;42.186;24.340;2023-03-05T13:20:32;17.10;;;15.07;;
27728;SDS011;15126;42.186;24.340;2023-03-05T13:23:18;16.13;;;14.17;;
27728;SDS011;15126;42.186;24.340;2023-03-05T13:25:56;18.07;;;15.20;;
27728;SDS011;15126;42.186;24.340;2023-03-05T13:28:27;21.10;;;16.77;;
27728;SDS011;15126;42.186;24.340;2023-03-05T13:30:56;18.93;;;15.93;;
27728;SDS011;15126;42.186;24.340;2023-03-05T13:33:25;20.97;;;17.70;;
27728;SDS011;15126;42.186;24.340;2023-03-05T13:35:53;19.77;;;16.23;;
27728;SDS011;15126;42.186;24.340;2023-03-05T13:38:25;19.10;;;16.73;;
27728;SDS011;15126;42.186;24.340;2023-03-05T13:41:00;25.97;;;19.80;;
27728;SDS011;15126;42.186;24.340;2023-03-05T13:43:30;26.43;;;21.70;;
27728;SDS011;15126;42.186;24.340;2023-03-05T13:45:57;20.60;;;18.50;;
27728;SDS011;15126;42.186;24.340;2023-03-05T13:48:25;19.90;;;17.07;;
27728;SDS011;15126;42.186;24.340;2023-03-05T13:50:54;24.53;;;21.00;;
27728;SDS011;15126;42.186;24.340;2023-03-05T13:53:23;24.60;;;19.90;;
27728;SDS011;15126;42.186;24.340;2023-03-05T13:55:52;24.40;;;19.63;;
27728;SDS011;15126;42.186;24.340;2023-03-05T13:58:42;22.87;;;19.60;;
27728;SDS011;15126;42.186;24.340;2023-03-05T14:01:13;25.47;;;18.53;;
27728;SDS011;15126;42.186;24.340;2023-03-05T14:03:47;18.10;;;16.40;;
27728;SDS011;15126;42.186;24.340;2023-03-05T14:06:15;23.10;;;19.57;;
27728;SDS011;15126;42.186;24.340;2023-03-05T14:08:47;19.27;;;16.93;;
27728;SDS011;15126;42.186;24.340;2023-03-05T14:11:16;20.33;;;18.13;;
27728;SDS011;15126;42.186;24.340;2023-03-05T14:13:46;18.90;;;16.93;;
27728;SDS011;15126;42.186;24.340;2023-03-05T14:16:22;21.63;;;19.47;;
27728;SDS011;15126;42.186;24.340;2023-03-05T14:18:53;24.73;;;19.70;;
27728;SDS011;15126;42.186;24.340;2023-03-05T14:21:21;19.63;;;17.47;;
27728;SDS011;15126;42.186;24.340;2023-03-05T14:23:49;20.33;;;18.10;;
27728;SDS011;15126;42.186;24.340;2023-03-05T14:26:29;25.83;;;20.60;;
27728;SDS011;15126;42.186;24.340;2023-03-05T14:28:59;20.93;;;17.90;;
27728;SDS011;15126;42.186;24.340;2023-03-05T14:31:29;20.70;;;18.50;;